Arabia, CA

4:28 AM PST on February 28, 2015 (GMT -0800)
APRSWXNET Coachella CA US | Change Station
CLOSE
Current Station
Personal Weather Station
Location: Coachella, CA
Elevation: 110 ft
Nearby Weather Stations
Active Advisory: Wind Advisory

Elev 110 ft 33.67 °N, 116.15 °W | Updated 31 minutes ago

Partly Cloudy
Partly Cloudy
60 °F
Feels Like 60 °F
N
2
Wind Variable Wind from North
Gusts 6.0 mph

Today
High -- | Low -- °F
--% Chance of Precip.
Yesterday
High -- | Low -- °F
Precip. -- in
6:14 AM 5:40 PM
Waxing Gibbous, 77% visible
Pressure 29.65 in
Visibility 10.0 miles
Clouds Few 7500 ft
Dew Point 39 °F
Humidity 45%
Rainfall 0.00 in
Snow Depth Not available.
UV 0 out of 12
Pollen 9.00 out of 12
Air Quality Not available.
Flu Activity Not available.
METAR KTRM 281152Z AUTO 04005KT 10SM FEW075 17/03 A2964 RMK AO2 SLP039 T01670033 10194 20167 50002 TSNO

More Conditions Fewer Conditions

Pressure 29.65 in
Visibility 10.0 miles
Clouds Few 7500 ft
Dew Point 39 °F
Humidity 45%
Rainfall 0.00 in
Snow Depth Not available.
UV 0 out of 12
Pollen 9.00 out of 12
Air Quality Not available.
Flu Activity Not available.
METAR KTRM 281152Z AUTO 04005KT 10SM FEW075 17/03 A2964 RMK AO2 SLP039 T01670033 10194 20167 50002 TSNO

More Conditions Fewer Conditions

10-Day Weather Forecast

Almanac

Astronomy

Feb. 28, 2015 Rise Set
Actual Time
Civil Twilight
Nautical Twilight
Astronomical Twilight
Moon
Length of Visible Light
Length of Day
Tomorrow will be .
, % of the Moon is Illuminated

Today's Extremes

State Highs State Lows

Community

WunderPhotos

Upload Photos

1,800,998 photos uploaded!

WunderBlogs® & News

Nearby

Air Quality

  Air Quality AQ Index Pollutant
Not available.

Snow Depth

Station Depth Elevation

Earthquake Activity

City Distance Mag. Time & Date
Minimum magnitude displayed is 2.5.

Coastal Water Temperatures

Place Temperature

Nearby Weather Stations

Wind Advisory
Statement as of 3:48 AM PST on February 28, 2015

... Wind Advisory now in effect until 4 PM PST this afternoon...

* winds... west to northwest winds 20 to 30 mph with gusts to 45
mph.

* Visibility... locally reduced in blowing sand and dust.

* Impacts... driving of high profile vehicles will be hazardous.

Precautionary/preparedness actions...

A Wind Advisory means that winds of 35 mph are expected. Winds
this strong can make driving difficult... especially for high
profile vehicles. Use extra caution.